Time;durP1;ratioP1;P1;durP2;ratioP2;P2;SDS_P1;SDS_P2;PMS_P1;PMS_P2;Temp;Humidity;BMP_temperature;BMP_pressure;BME280_temperature;BME280_humidity;BME280_pressure;Samples;Min_cycle;Max_cycle;Signal;HPM_P1;HPM_P2
2022/05/02 00:00:45;;;;;;;9.63;6.43;;;11.10;1.00;;;;;;5075030;28;20889;-84
2022/05/02 00:03:20;;;;;;;8.90;6.53;;;11.10;1.00;;;;;;5074860;28;20463;-84
2022/05/02 00:06:08;;;;;;;16.57;7.53;;;11.10;1.00;;;;;;5075086;28;20491;-76
2022/05/02 00:08:34;;;;;;;7.53;6.70;;;11.00;1.00;;;;;;5060555;28;20392;-76
2022/05/02 00:11:00;;;;;;;28.80;6.90;;;11.00;1.00;;;;;;5054891;28;20482;-76
2022/05/02 00:13:26;;;;;;;9.37;6.70;;;11.00;1.00;;;;;;5070203;28;20233;-76
2022/05/02 00:15:56;;;;;;;12.53;7.30;;;10.90;1.00;;;;;;5074529;28;20714;-75
2022/05/02 00:18:28;;;;;;;10.97;6.97;;;10.90;1.00;;;;;;5074649;28;20167;-75
2022/05/02 00:20:53;;;;;;;13.93;7.17;;;10.80;1.00;;;;;;5074669;28;20380;-76
2022/05/02 00:23:19;;;;;;;8.77;6.90;;;10.80;1.00;;;;;;5072960;28;20513;-75
2022/05/02 00:25:45;;;;;;;9.07;7.20;;;10.70;1.00;;;;;;5064245;28;20215;-75
2022/05/02 00:28:14;;;;;;;12.03;7.00;;;10.70;1.00;;;;;;5057549;28;20163;-75
2022/05/02 00:30:45;;;;;;;9.17;7.10;;;10.70;1.00;;;;;;5063449;28;20191;-75
2022/05/02 00:33:11;;;;;;;10.67;7.23;;;10.70;1.00;;;;;;5071843;28;20384;-75
2022/05/02 00:35:50;;;;;;;13.93;7.63;;;10.70;1.00;;;;;;5090181;28;20417;-84
2022/05/02 00:38:16;;;;;;;10.50;7.20;;;10.60;1.00;;;;;;5074248;28;20391;-84
2022/05/02 00:40:51;;;;;;;12.40;7.50;;;10.60;1.00;;;;;;5074373;28;20388;-84
2022/05/02 00:43:50;;;;;;;11.00;6.57;;;10.60;1.00;;;;;;5061095;28;20166;-84
2022/05/02 00:46:23;;;;;;;12.33;7.10;;;10.50;1.00;;;;;;5058797;28;20441;-84
2022/05/02 00:48:52;;;;;;;12.57;7.47;;;10.40;1.00;;;;;;5072949;28;20417;-84
2022/05/02 00:51:21;;;;;;;11.80;7.53;;;10.40;1.00;;;;;;5074450;28;20414;-76
2022/05/02 00:53:49;;;;;;;9.90;7.53;;;10.40;1.00;;;;;;5072810;28;20387;-75
2022/05/02 00:56:21;;;;;;;12.40;7.30;;;10.30;1.00;;;;;;5072548;28;20380;-75
2022/05/02 00:58:49;;;;;;;8.53;7.07;;;10.30;1.00;;;;;;5073949;28;20398;-75
2022/05/02 01:01:15;;;;;;;15.10;8.00;;;10.20;1.00;;;;;;5073956;28;20401;-75
2022/05/02 01:03:50;;;;;;;13.73;8.23;;;10.30;1.00;;;;;;5074084;28;20393;-75
2022/05/02 01:09:20;;;;;;;14.60;7.80;;;10.20;1.00;;;;;;5071785;28;20984;-84
2022/05/02 01:15:16;;;;;;;13.80;7.87;;;10.20;1.00;;;;;;5073477;28;20474;-84
2022/05/02 01:17:45;;;;;;;12.90;7.60;;;10.10;1.00;;;;;;5073756;28;20487;-83
2022/05/02 01:20:12;;;;;;;12.43;8.07;;;10.10;1.00;;;;;;5073781;28;20406;-83
2022/05/02 01:22:50;;;;;;;12.30;7.60;;;10.00;1.00;;;;;;5078816;28;20757;-84
2022/05/02 01:25:38;;;;;;;13.67;7.83;;;10.00;1.00;;;;;;5059450;28;20769;-83
2022/05/02 01:28:39;;;;;;;11.10;7.30;;;10.00;1.00;;;;;;5067475;28;20412;-83
2022/05/02 01:31:08;;;;;;;10.73;7.00;;;10.00;1.00;;;;;;5072251;28;20457;-84
2022/05/02 01:33:39;;;;;;;9.17;6.70;;;10.00;1.00;;;;;;5073639;28;20769;-84
2022/05/02 01:36:05;;;;;;;8.50;6.77;;;9.90;1.00;;;;;;5073781;28;20508;-83
2022/05/02 01:38:33;;;;;;;15.60;6.87;;;9.90;1.00;;;;;;5073654;28;20460;-83
2022/05/02 01:41:38;;;;;;;11.90;7.13;;;9.90;1.00;;;;;;5073124;28;20488;-83
2022/05/02 01:44:15;;;;;;;7.97;6.80;;;9.80;1.00;;;;;;5074349;28;20463;-83
2022/05/02 01:46:52;;;;;;;18.50;8.00;;;9.80;1.00;;;;;;5079208;28;20427;-83
2022/05/02 01:49:17;;;;;;;11.43;7.23;;;9.70;1.00;;;;;;5076020;28;20429;-83
2022/05/02 01:51:51;;;;;;;8.47;7.20;;;9.70;1.00;;;;;;5077574;28;20949;-83
2022/05/02 01:54:20;;;;;;;11.53;6.40;;;9.70;1.00;;;;;;5077192;28;20174;-83
2022/05/02 01:57:03;;;;;;;9.63;6.90;;;9.70;1.00;;;;;;5077238;28;20401;-83
2022/05/02 01:59:38;;;;;;;11.20;7.43;;;9.70;1.00;;;;;;5077296;28;20383;-83
2022/05/02 02:02:20;;;;;;;16.60;8.03;;;9.60;1.00;;;;;;5077204;28;20417;-83
2022/05/02 02:07:57;;;;;;;13.40;7.60;;;9.50;1.00;;;;;;5055397;28;20746;-75
2022/05/02 02:10:22;;;;;;;14.37;8.07;;;9.50;1.00;;;;;;5055078;28;20474;-75
2022/05/02 02:12:48;;;;;;;15.77;7.80;;;9.50;1.00;;;;;;5054981;28;20752;-75
2022/05/02 02:15:21;;;;;;;12.80;8.27;;;9.50;1.00;;;;;;5054805;28;20203;-75
2022/05/02 02:17:50;;;;;;;9.73;7.80;;;9.50;1.00;;;;;;5054767;28;20767;-75
2022/05/02 02:20:16;;;;;;;17.00;8.37;;;9.40;1.00;;;;;;5054894;28;20938;-75
2022/05/02 02:22:45;;;;;;;11.40;7.80;;;9.40;1.00;;;;;;5054678;28;20392;-83
2022/05/02 02:25:15;;;;;;;13.83;8.13;;;9.30;1.00;;;;;;5037988;28;20188;-83
2022/05/02 02:27:41;;;;;;;13.87;8.40;;;9.30;1.00;;;;;;5054695;28;20396;-83
2022/05/02 02:33:28;;;;;;;10.87;7.50;;;9.20;1.00;;;;;;5054285;28;20190;-82
2022/05/02 02:35:59;;;;;;;11.33;8.00;;;9.10;1.00;;;;;;5054439;28;20410;-82
2022/05/02 02:38:25;;;;;;;13.70;8.20;;;9.00;1.00;;;;;;5037988;28;20189;-83
2022/05/02 02:41:03;;;;;;;11.43;7.93;;;9.00;1.00;;;;;;5056065;28;20403;-83
2022/05/02 02:43:33;;;;;;;10.70;7.77;;;9.00;1.00;;;;;;5076429;28;20426;-82
2022/05/02 02:46:02;;;;;;;11.60;8.57;;;8.90;1.00;;;;;;5076132;28;20416;-83
2022/05/02 02:48:32;;;;;;;11.17;8.53;;;8.90;1.00;;;;;;5074875;28;20425;-82
2022/05/02 02:51:20;;;;;;;11.60;8.90;;;8.90;1.00;;;;;;5074723;28;20475;-83
2022/05/02 02:53:46;;;;;;;18.10;8.90;;;8.90;1.00;;;;;;5075349;28;20380;-75
2022/05/02 02:56:11;;;;;;;12.53;8.90;;;8.90;1.00;;;;;;5062983;28;20432;-75
2022/05/02 02:58:39;;;;;;;16.87;9.57;;;8.90;1.00;;;;;;5076310;28;20280;-75
2022/05/02 03:01:09;;;;;;;18.37;9.40;;;8.90;1.00;;;;;;5062637;28;20227;-75
2022/05/02 03:03:35;;;;;;;14.83;9.07;;;8.90;1.00;;;;;;5076240;28;20432;-75
2022/05/02 03:06:01;;;;;;;10.77;8.77;;;8.90;1.00;;;;;;5076093;28;20414;-75
2022/05/02 03:08:50;;;;;;;12.50;8.00;;;9.00;1.00;;;;;;5076348;28;20436;-83
2022/05/02 03:11:21;;;;;;;18.93;9.33;;;9.00;1.00;;;;;;5069218;28;20201;-83
2022/05/02 03:13:46;;;;;;;12.70;9.03;;;9.00;1.00;;;;;;5075450;28;20776;-82
2022/05/02 03:16:21;;;;;;;13.03;9.27;;;9.00;1.00;;;;;;5075801;28;20418;-83
2022/05/02 03:18:56;;;;;;;15.33;9.80;;;9.00;1.00;;;;;;5064868;28;20229;-84
2022/05/02 03:21:38;;;;;;;16.00;10.00;;;9.00;1.00;;;;;;5069528;28;20412;-82
2022/05/02 03:24:14;;;;;;;15.97;10.40;;;9.00;1.00;;;;;;5075790;28;20870;-83
2022/05/02 03:26:51;;;;;;;11.10;8.70;;;9.10;1.00;;;;;;5075444;28;20409;-83
2022/05/02 03:29:21;;;;;;;11.93;7.90;;;9.10;1.00;;;;;;5072256;28;20943;-82
2022/05/02 03:31:46;;;;;;;11.07;8.20;;;9.10;1.00;;;;;;5074043;28;20787;-83
2022/05/02 03:34:20;;;;;;;12.90;8.40;;;9.10;1.00;;;;;;5075229;28;20462;-82
2022/05/02 03:37:08;;;;;;;13.53;7.90;;;9.00;1.00;;;;;;5075168;28;21015;-82
2022/05/02 03:39:39;;;;;;;12.30;7.77;;;9.00;1.00;;;;;;5075302;28;20386;-83
2022/05/02 03:42:15;;;;;;;14.00;8.67;;;9.00;1.00;;;;;;5075126;28;20405;-83
2022/05/02 03:44:40;;;;;;;14.93;8.97;;;8.90;1.00;;;;;;5074973;28;20405;-83
2022/05/02 03:47:09;;;;;;;12.07;8.33;;;8.90;1.00;;;;;;5075146;28;20459;-82
2022/05/02 03:49:50;;;;;;;14.47;9.00;;;8.90;1.00;;;;;;5075110;28;20206;-82
2022/05/02 03:52:16;;;;;;;15.30;9.93;;;8.90;1.00;;;;;;5074099;28;20501;-75
2022/05/02 03:54:44;;;;;;;17.33;10.23;;;8.80;1.00;;;;;;5074975;28;20919;-76
2022/05/02 03:57:21;;;;;;;12.13;8.57;;;8.80;1.00;;;;;;5074838;28;20485;-75
2022/05/02 03:59:50;;;;;;;15.13;9.40;;;8.70;1.00;;;;;;5075166;28;20926;-75
2022/05/02 04:02:21;;;;;;;16.33;9.43;;;8.70;1.00;;;;;;5074992;28;20529;-75
2022/05/02 04:04:46;;;;;;;13.67;9.77;;;8.70;1.00;;;;;;5075023;28;20726;-74
2022/05/02 04:07:27;;;;;;;11.50;9.13;;;8.70;1.00;;;;;;5074707;28;20433;-75
2022/05/02 04:09:52;;;;;;;15.90;10.23;;;8.60;1.00;;;;;;5071517;28;20203;-75
2022/05/02 04:12:20;;;;;;;12.93;9.30;;;8.70;1.00;;;;;;5054840;28;20884;-74
2022/05/02 04:14:46;;;;;;;16.97;10.47;;;8.60;1.00;;;;;;5066387;28;20551;-75
2022/05/02 04:17:15;;;;;;;16.03;10.60;;;8.50;1.00;;;;;;5074847;28;20394;-75
2022/05/02 04:19:44;;;;;;;14.87;10.20;;;8.60;1.00;;;;;;5072698;28;20614;-75
2022/05/02 04:22:40;;;;;;;23.00;10.20;;;8.50;1.00;;;;;;5054556;28;20397;-74
2022/05/02 04:25:06;;;;;;;15.63;10.60;;;8.50;1.00;;;;;;5072610;28;20424;-83
2022/05/02 04:27:50;;;;;;;15.63;10.20;;;8.60;1.00;;;;;;5074592;28;20785;-82
2022/05/02 04:30:21;;;;;;;14.97;10.43;;;8.60;1.00;;;;;;5054401;28;20446;-82
2022/05/02 04:32:46;;;;;;;22.57;11.13;;;8.60;1.00;;;;;;5055702;28;20395;-83
2022/05/02 04:35:12;;;;;;;19.97;10.30;;;8.60;1.00;;;;;;5074068;28;20438;-82
2022/05/02 04:37:39;;;;;;;16.27;10.10;;;8.60;1.00;;;;;;5074510;28;20151;-79
2022/05/02 04:40:21;;;;;;;21.13;10.77;;;8.70;1.00;;;;;;5073954;28;20216;-82
2022/05/02 04:42:50;;;;;;;20.60;11.20;;;8.70;1.00;;;;;;5074002;28;20424;-83
2022/05/02 04:45:21;;;;;;;19.37;11.90;;;8.70;1.00;;;;;;5073828;28;20896;-82
2022/05/02 04:47:46;;;;;;;17.07;11.03;;;8.80;1.00;;;;;;5072514;28;20417;-74
2022/05/02 04:50:15;;;;;;;23.93;10.90;;;8.80;1.00;;;;;;5073533;28;20817;-74
2022/05/02 04:52:40;;;;;;;17.37;11.30;;;8.90;1.00;;;;;;5073784;28;20164;-74
2022/05/02 04:55:06;;;;;;;15.33;10.57;;;8.90;1.00;;;;;;5074010;28;20489;-74
2022/05/02 04:57:32;;;;;;;22.90;10.53;;;9.00;1.00;;;;;;5073817;28;20179;-74
2022/05/02 04:59:58;;;;;;;19.03;10.70;;;9.10;1.00;;;;;;5072998;28;20409;-74
2022/05/02 05:02:39;;;;;;;19.43;11.60;;;9.10;1.00;;;;;;5073788;28;20175;-75
2022/05/02 05:05:07;;;;;;;18.07;10.70;;;9.20;1.00;;;;;;5071513;28;20182;-74
2022/05/02 05:07:32;;;;;;;18.00;10.83;;;9.30;1.00;;;;;;5067705;28;20491;-74
2022/05/02 05:09:58;;;;;;;22.63;11.47;;;9.30;1.00;;;;;;5074328;28;20461;-71
2022/05/02 05:12:38;;;;;;;18.37;10.40;;;9.40;1.00;;;;;;5072943;28;20243;-70
2022/05/02 05:18:41;;;;;;;15.97;9.60;;;9.60;1.00;;;;;;5072223;28;20448;-74
2022/05/02 05:21:54;;;;;;;14.67;10.10;;;9.70;1.00;;;;;;5011736;28;20491;-74
2022/05/02 05:24:44;;;;;;;19.17;10.03;;;9.70;1.00;;;;;;4934633;29;20819;-81
2022/05/02 05:27:45;;;;;;;12.93;9.70;;;9.80;1.00;;;;;;4934463;29;20435;-80
2022/05/02 05:30:21;;;;;;;27.47;10.63;;;9.90;1.00;;;;;;4930452;29;20466;-81
2022/05/02 05:33:20;;;;;;;14.33;9.30;;;10.00;1.00;;;;;;4924738;29;20425;-81
2022/05/02 05:36:14;;;;;;;16.53;9.30;;;10.10;1.00;;;;;;4925031;29;20467;-76
2022/05/02 05:39:03;;;;;;;17.43;9.33;;;10.20;1.00;;;;;;4931823;29;20432;-74
2022/05/02 05:41:59;;;;;;;20.53;9.73;;;10.30;1.00;;;;;;4923388;29;20424;-75
2022/05/02 05:45:02;;;;;;;14.33;9.90;;;10.40;1.00;;;;;;4931880;29;20764;-75
2022/05/02 05:48:00;;;;;;;14.40;9.50;;;10.50;1.00;;;;;;4933170;29;20410;-75
2022/05/02 05:50:52;;;;;;;16.73;10.20;;;10.70;1.00;;;;;;4876406;29;20531;-75
2022/05/02 05:53:55;;;;;;;13.10;9.13;;;10.80;1.00;;;;;;4858112;29;20906;-70
2022/05/02 05:56:39;;;;;;;11.87;9.03;;;10.90;1.00;;;;;;4847192;29;20454;-74
2022/05/02 05:59:30;;;;;;;13.00;9.13;;;11.10;1.00;;;;;;4902455;29;20424;-75
2022/05/02 06:02:16;;;;;;;13.33;8.93;;;11.10;1.00;;;;;;4895820;29;20429;-73
2022/05/02 06:04:51;;;;;;;13.43;8.13;;;11.30;1.00;;;;;;4904303;29;20417;-75
2022/05/02 06:07:18;;;;;;;15.67;8.60;;;11.40;1.00;;;;;;4906694;29;20440;-75
2022/05/02 06:09:44;;;;;;;15.63;9.00;;;11.60;1.00;;;;;;4912062;29;20475;-70
2022/05/02 06:12:13;;;;;;;13.63;8.83;;;11.60;1.00;;;;;;4909722;29;20431;-71
2022/05/02 06:20:15;;;;;;;9.30;8.00;;;12.00;1.00;;;;;;4914900;29;20478;-70
2022/05/02 06:22:42;;;;;;;13.83;8.10;;;12.10;1.00;;;;;;4922197;29;20417;-71
2022/05/02 06:25:08;;;;;;;11.43;7.80;;;12.20;1.00;;;;;;4899968;29;20416;-70
2022/05/02 06:27:34;;;;;;;18.87;8.73;;;12.30;1.00;;;;;;4926789;28;20625;-70
2022/05/02 06:30:04;;;;;;;14.70;8.33;;;12.40;1.00;;;;;;4999047;28;20556;-70
2022/05/02 06:32:35;;;;;;;14.90;8.10;;;12.50;1.00;;;;;;5070931;28;20866;-70
2022/05/02 06:35:01;;;;;;;10.10;7.63;;;12.70;1.00;;;;;;5074203;28;20410;-70
2022/05/02 06:37:53;;;;;;;14.03;7.67;;;12.70;1.00;;;;;;5065178;28;20543;-70
2022/05/02 06:40:19;;;;;;;13.07;8.53;;;12.90;1.00;;;;;;5007931;28;20199;-70
2022/05/02 06:43:27;;;;;;;11.57;7.90;;;13.00;1.00;;;;;;5008581;28;20410;-70
2022/05/02 06:46:17;;;;;;;13.07;8.80;;;13.10;1.00;;;;;;5020012;28;20397;-70
2022/05/02 06:48:48;;;;;;;11.77;7.77;;;13.20;1.00;;;;;;5009282;28;20430;-70
2022/05/02 06:51:23;;;;;;;24.67;8.57;;;13.30;1.00;;;;;;4997436;28;20442;-70
2022/05/02 06:54:26;;;;;;;14.60;8.07;;;13.50;1.00;;;;;;5018205;28;20489;-74
2022/05/02 06:57:33;;;;;;;10.10;7.03;;;13.50;1.00;;;;;;5012146;28;20434;-70
2022/05/02 07:00:07;;;;;;;11.70;7.67;;;13.50;1.00;;;;;;4967938;28;20895;-70
2022/05/02 07:02:58;;;;;;;11.20;7.90;;;13.50;1.00;;;;;;4974340;28;20434;-70
2022/05/02 07:05:37;;;;;;;12.73;7.63;;;13.50;1.00;;;;;;4971121;28;20481;-70
2022/05/02 07:08:06;;;;;;;11.57;8.27;;;13.50;1.00;;;;;;4966011;28;20468;-71
2022/05/02 07:10:38;;;;;;;10.93;7.80;;;13.60;1.00;;;;;;4968221;28;20503;-73
2022/05/02 07:13:29;;;;;;;14.47;8.40;;;13.70;1.00;;;;;;4952438;29;20389;-73
2022/05/02 07:16:24;;;;;;;10.93;7.50;;;13.90;1.00;;;;;;4965896;28;20437;-75
2022/05/02 07:19:11;;;;;;;11.23;8.17;;;14.30;1.00;;;;;;5020812;28;20537;-74
2022/05/02 07:21:55;;;;;;;13.03;8.50;;;14.70;99.90;;;;;;5028970;28;20508;-73
2022/05/02 07:24:57;;;;;;;10.73;7.67;;;15.00;99.90;;;;;;5023589;28;20431;-71
2022/05/02 07:27:57;;;;;;;10.50;7.70;;;15.10;99.90;;;;;;5022857;28;20434;-77
2022/05/02 07:30:24;;;;;;;11.00;7.90;;;15.20;99.90;;;;;;5019480;28;20530;-71
2022/05/02 07:32:55;;;;;;;14.27;8.17;;;15.20;99.90;;;;;;5033903;28;20442;-71
2022/05/02 07:35:21;;;;;;;10.13;7.67;;;15.30;99.90;;;;;;5071602;28;20437;-79
2022/05/02 07:38:28;;;;;;;12.13;7.80;;;15.40;99.90;;;;;;5075156;28;20756;-80
2022/05/02 07:41:23;;;;;;;11.30;7.20;;;15.60;99.90;;;;;;5075697;28;20416;-89
2022/05/02 07:44:01;;;;;;;12.17;8.10;;;15.60;99.90;;;;;;5089117;28;20942;-89
2022/05/02 07:49:56;;;;;;;17.43;8.80;;;15.80;99.90;;;;;;5075226;28;20602;-89
2022/05/02 07:59:10;;;;;;;10.97;7.60;;;16.10;99.90;;;;;;5071892;28;20922;-80
2022/05/02 08:01:39;;;;;;;9.97;7.00;;;16.20;99.90;;;;;;5074782;28;20933;-81
2022/05/02 08:04:04;;;;;;;12.97;6.90;;;16.30;99.90;;;;;;5071303;28;20484;-69
2022/05/02 08:06:52;;;;;;;20.10;7.60;;;16.50;99.90;;;;;;5074004;28;20899;-85
2022/05/02 08:09:36;;;;;;;13.03;7.70;;;16.70;99.90;;;;;;5073629;28;20312;-76
2022/05/02 08:12:10;;;;;;;12.00;7.17;;;16.90;99.90;;;;;;5072079;28;20893;-76
2022/05/02 08:15:10;;;;;;;14.03;7.60;;;17.00;99.90;;;;;;5074825;28;20390;-85
2022/05/02 08:28:02;;;;;;;16.13;8.20;;;17.30;99.90;;;;;;5068504;28;20405;-86
2022/05/02 08:30:42;;;;;;;9.00;7.30;;;17.50;99.90;;;;;;5069953;28;20442;-75
2022/05/02 08:33:26;;;;;;;10.07;6.90;;;17.70;99.90;;;;;;5066079;28;20433;-79
2022/05/02 08:36:13;;;;;;;20.87;7.87;;;17.80;99.90;;;;;;5073775;28;20416;-83
2022/05/02 08:39:03;;;;;;;14.90;7.60;;;17.80;99.90;;;;;;5054173;28;20861;-84
2022/05/02 08:42:01;;;;;;;12.67;7.80;;;17.70;99.90;;;;;;5060308;28;20550;-84
2022/05/02 08:44:53;;;;;;;10.90;6.93;;;17.60;99.90;;;;;;5072587;28;20455;-82
2022/05/02 08:47:56;;;;;;;12.53;7.10;;;17.60;99.90;;;;;;5072786;28;20423;-83
2022/05/02 08:50:35;;;;;;;9.17;7.13;;;17.70;99.90;;;;;;5073770;28;20538;-84
2022/05/02 08:53:32;;;;;;;8.80;6.50;;;17.80;99.90;;;;;;5073737;28;20889;-83
2022/05/02 08:56:35;;;;;;;13.77;7.17;;;17.90;99.90;;;;;;5071604;28;20424;-84
2022/05/02 09:06:09;;;;;;;12.53;7.30;;;18.40;99.90;;;;;;5074085;28;20442;-87
2022/05/02 09:12:09;;;;;;;10.90;6.90;;;18.80;99.90;;;;;;5066401;28;20954;-77
2022/05/02 09:15:11;;;;;;;11.60;6.80;;;19.00;99.90;;;;;;5073645;28;20424;-77
2022/05/02 09:18:04;;;;;;;9.60;7.13;;;19.30;99.90;;;;;;4991523;28;20447;-77
2022/05/02 09:20:56;;;;;;;9.90;6.20;;;19.50;99.90;;;;;;4992084;28;20481;-77
2022/05/02 09:23:59;;;;;;;13.50;6.73;;;19.70;99.90;;;;;;4975055;28;20454;-77
2022/05/02 09:34:02;;;;;;;15.07;7.17;;;20.20;99.90;;;;;;4992932;28;20420;-88
2022/05/02 09:40:04;;;;;;;18.53;6.90;;;20.50;99.90;;;;;;4986290;28;20419;-88
2022/05/02 09:42:51;;;;;;;9.73;7.30;;;20.50;99.90;;;;;;4986938;28;20496;-76
2022/05/02 09:52:03;;;;;;;10.10;6.60;;;20.80;99.90;;;;;;4983192;28;20453;-77
2022/05/02 09:58:00;;;;;;;9.30;6.67;;;21.10;99.90;;;;;;5073552;28;20447;-77
2022/05/02 10:01:06;;;;;;;18.27;6.87;;;21.20;99.90;;;;;;5073340;28;20391;-76
2022/05/02 10:03:39;;;;;;;15.20;8.03;;;21.40;99.90;;;;;;5068597;28;20408;-77
2022/05/02 10:06:18;;;;;;;14.40;8.37;;;21.30;99.90;;;;;;5057229;28;20520;-76
2022/05/02 10:09:17;;;;;;;9.00;6.40;;;21.40;99.90;;;;;;5057406;28;20494;-76
2022/05/02 10:12:18;;;;;;;8.50;6.70;;;21.50;99.90;;;;;;5073656;28;20441;-88
2022/05/02 10:15:20;;;;;;;8.60;6.70;;;21.60;99.90;;;;;;5077392;28;20425;-87
2022/05/02 10:21:56;;;;;;;11.90;6.80;;;21.60;99.90;;;;;;5077264;28;20408;-87
2022/05/02 10:25:14;;;;;;;11.20;7.07;;;21.80;99.90;;;;;;4999822;28;20443;-87
2022/05/02 10:35:02;;;;;;;18.20;6.37;;;21.70;99.90;;;;;;5014894;28;20398;-87
2022/05/02 10:37:57;;;;;;;13.63;7.23;;;21.70;99.90;;;;;;5011482;28;20859;-87
2022/05/02 10:41:08;;;;;;;11.63;6.57;;;21.60;99.90;;;;;;5015359;28;20426;-88
2022/05/02 10:43:49;;;;;;;10.50;6.90;;;21.50;99.90;;;;;;5016998;28;20942;-76
2022/05/02 10:46:21;;;;;;;11.37;7.73;;;21.50;99.90;;;;;;5013917;28;20422;-77
2022/05/02 10:49:00;;;;;;;10.17;6.83;;;21.60;99.90;;;;;;5011143;28;20423;-76
2022/05/02 10:52:13;;;;;;;13.23;7.43;;;21.70;99.90;;;;;;5007866;28;20458;-76
2022/05/02 10:54:55;;;;;;;11.67;7.63;;;21.70;99.90;;;;;;5001149;28;20919;-76
2022/05/02 10:57:52;;;;;;;17.57;8.40;;;21.70;99.90;;;;;;4994614;28;20471;-84
2022/05/02 11:00:23;;;;;;;14.20;8.07;;;21.60;99.90;;;;;;5032320;28;20950;-87
2022/05/02 11:03:08;;;;;;;10.80;6.77;;;21.60;99.90;;;;;;5076223;28;20440;-85
2022/05/02 11:06:16;;;;;;;9.20;7.30;;;21.50;99.90;;;;;;5075934;28;20414;-86
2022/05/02 11:08:49;;;;;;;11.60;7.30;;;21.40;99.90;;;;;;5075964;28;20430;-85
2022/05/02 11:11:50;;;;;;;10.00;6.70;;;21.40;99.90;;;;;;5075859;28;20488;-78
2022/05/02 11:14:50;;;;;;;12.20;7.40;;;21.50;99.90;;;;;;5055487;28;20404;-86
2022/05/02 11:17:51;;;;;;;13.90;6.27;;;21.20;99.90;;;;;;5084019;28;20485;-86
2022/05/02 11:23:58;;;;;;;8.63;6.97;;;21.30;99.90;;;;;;5067986;28;20411;-85
2022/05/02 11:26:37;;;;;;;14.83;7.30;;;21.30;99.90;;;;;;5076198;28;20443;-83
2022/05/02 11:29:36;;;;;;;17.00;7.47;;;21.40;99.90;;;;;;5075373;28;20409;-76
2022/05/02 11:32:04;;;;;;;14.70;7.10;;;21.40;99.90;;;;;;5070268;28;20427;-76
2022/05/02 11:34:54;;;;;;;10.47;7.53;;;21.50;99.90;;;;;;5075687;28;20422;-76
2022/05/02 11:37:51;;;;;;;13.53;7.87;;;21.50;99.90;;;;;;5075536;28;20412;-76
2022/05/02 11:40:28;;;;;;;12.60;7.50;;;21.60;99.90;;;;;;5075097;28;20424;-76
2022/05/02 11:43:03;;;;;;;10.40;6.93;;;21.70;99.90;;;;;;5076275;28;20404;-86
2022/05/02 11:46:03;;;;;;;11.40;7.27;;;21.90;99.90;;;;;;5075288;28;20413;-86
2022/05/02 11:49:02;;;;;;;11.40;7.40;;;22.10;99.90;;;;;;5075544;28;20513;-85
2022/05/02 11:51:51;;;;;;;17.33;7.83;;;22.30;99.90;;;;;;5074917;28;20457;-85
2022/05/02 11:54:54;;;;;;;11.40;7.83;;;22.30;99.90;;;;;;5075152;28;20488;-85
2022/05/02 11:57:35;;;;;;;14.43;7.30;;;22.50;99.90;;;;;;5063308;28;20450;-76
2022/05/02 12:00:26;;;;;;;10.17;6.87;;;22.50;99.90;;;;;;5076956;28;20759;-77
2022/05/02 12:03:01;;;;;;;10.87;7.70;;;22.60;99.90;;;;;;5074631;28;20434;-77
2022/05/02 12:05:31;;;;;;;10.10;6.33;;;22.40;99.90;;;;;;5074569;28;20421;-77
2022/05/02 12:08:04;;;;;;;14.10;7.80;;;22.50;99.90;;;;;;5073210;28;20903;-77
2022/05/02 12:10:36;;;;;;;13.90;7.40;;;22.40;99.90;;;;;;5074443;28;20956;-77
2022/05/02 12:13:21;;;;;;;11.90;6.90;;;22.50;99.90;;;;;;5074830;28;20418;-87
2022/05/02 12:16:14;;;;;;;9.90;6.93;;;22.30;99.90;;;;;;5073950;28;20841;-86
2022/05/02 12:18:54;;;;;;;8.10;6.47;;;22.40;99.90;;;;;;5071952;28;20531;-87
2022/05/02 12:21:24;;;;;;;11.00;6.50;;;22.40;99.90;;;;;;5074183;28;20433;-87
2022/05/02 12:23:52;;;;;;;11.10;7.00;;;22.60;99.90;;;;;;5075050;28;20462;-87
2022/05/02 12:26:52;;;;;;;9.23;6.83;;;22.70;99.90;;;;;;5072803;28;20447;-87
2022/05/02 12:29:21;;;;;;;12.17;6.97;;;22.70;99.90;;;;;;5074837;28;21153;-76
2022/05/02 12:32:15;;;;;;;13.30;7.07;;;22.80;99.90;;;;;;5073087;28;20426;-76
2022/05/02 12:34:50;;;;;;;10.37;7.37;;;23.00;99.90;;;;;;5062712;28;20442;-73
2022/05/02 12:37:23;;;;;;;12.63;7.10;;;23.00;99.90;;;;;;5064817;28;20438;-73
2022/05/02 12:40:14;;;;;;;7.93;5.90;;;23.10;99.90;;;;;;5073431;28;20442;-72
2022/05/02 12:42:50;;;;;;;12.63;6.70;;;23.30;99.90;;;;;;5058602;28;20502;-71
2022/05/02 12:45:43;;;;;;;17.03;7.37;;;23.30;99.90;;;;;;5071900;28;20507;-79
2022/05/02 12:48:23;;;;;;;10.00;6.97;;;23.30;99.90;;;;;;5080910;28;20432;-80
2022/05/02 12:50:50;;;;;;;9.40;6.00;;;23.40;99.90;;;;;;5073695;28;21194;-73
2022/05/02 12:56:10;;;;;;;7.50;6.40;;;23.60;99.90;;;;;;5072386;28;20430;-72
2022/05/02 13:01:28;;;;;;;7.33;5.90;;;23.40;99.90;;;;;;5062911;28;20410;-72
2022/05/02 13:04:00;;;;;;;8.43;5.63;;;23.50;99.90;;;;;;5065049;28;20513;-72
2022/05/02 13:06:26;;;;;;;9.10;5.83;;;23.80;99.90;;;;;;5073800;28;20416;-72
2022/05/02 13:09:16;;;;;;;7.03;5.90;;;23.90;99.90;;;;;;5073398;28;20458;-73
2022/05/02 13:11:43;;;;;;;12.70;6.47;;;24.10;99.90;;;;;;5084889;28;20424;-73
2022/05/02 13:14:23;;;;;;;10.10;5.47;;;24.30;99.90;;;;;;5074176;28;20415;-78
2022/05/02 13:16:49;;;;;;;8.30;5.90;;;24.50;99.90;;;;;;5073436;28;20509;-78
2022/05/02 13:19:42;;;;;;;7.80;6.00;;;24.30;99.90;;;;;;5073598;28;20422;-79
2022/05/02 13:22:10;;;;;;;8.97;5.80;;;24.50;99.90;;;;;;5057755;28;20414;-78
2022/05/02 13:24:52;;;;;;;7.70;5.13;;;24.60;99.90;;;;;;5072396;28;20439;-78
2022/05/02 13:27:37;;;;;;;18.13;5.70;;;25.10;99.90;;;;;;5062425;28;20406;-78
2022/05/02 13:30:08;;;;;;;12.30;5.17;;;25.50;99.90;;;;;;5072013;28;20459;-72
2022/05/02 13:32:42;;;;;;;7.70;6.07;;;25.50;99.90;;;;;;5072705;28;20478;-71
2022/05/02 13:35:11;;;;;;;7.73;5.50;;;25.90;99.90;;;;;;5073489;28;20419;-72
2022/05/02 13:37:36;;;;;;;7.90;5.40;;;26.20;99.90;;;;;;5085238;28;20409;-73
2022/05/02 13:40:02;;;;;;;8.77;6.00;;;26.50;99.90;;;;;;5058910;28;20530;-72
2022/05/02 13:43:00;;;;;;;9.03;5.83;;;26.60;99.90;;;;;;5069186;28;20196;-72
2022/05/02 13:52:20;;;;;;;8.10;5.37;;;26.20;99.90;;;;;;5077763;28;20514;-87
2022/05/02 13:54:53;;;;;;;7.83;5.43;;;26.00;99.90;;;;;;5077456;28;20477;-85
2022/05/02 13:58:08;;;;;;;12.40;5.60;;;25.90;99.90;;;;;;5092913;28;20536;-85
2022/05/02 14:01:26;;;;;;;23.63;5.60;;;25.80;99.90;;;;;;5077699;28;20892;-76
2022/05/02 14:03:48;;;;;;;9.87;5.70;;;25.70;99.90;;;;;;5076961;28;20512;-75
2022/05/02 14:06:22;;;;;;;7.77;5.30;;;25.30;99.90;;;;;;5076970;28;20800;-75
2022/05/02 14:08:48;;;;;;;7.93;5.80;;;25.40;99.90;;;;;;5073329;28;20468;-75
2022/05/02 14:11:18;;;;;;;7.23;5.63;;;25.40;99.90;;;;;;5077613;28;20460;-74
2022/05/02 14:14:13;;;;;;;8.43;5.50;;;25.60;99.90;;;;;;5073968;28;20417;-76
2022/05/02 14:16:41;;;;;;;14.23;5.63;;;26.00;99.90;;;;;;5075135;28;20446;-77
2022/05/02 14:19:23;;;;;;;9.37;5.63;;;26.20;99.90;;;;;;5075485;28;20433;-77
2022/05/02 14:21:52;;;;;;;7.27;5.20;;;26.70;99.90;;;;;;5057100;28;20928;-77
2022/05/02 14:24:18;;;;;;;8.73;4.63;;;26.90;99.90;;;;;;5075424;28;20434;-77
2022/05/02 14:26:58;;;;;;;9.10;5.10;;;26.90;99.90;;;;;;5076955;28;20416;-76
2022/05/02 14:29:35;;;;;;;8.17;4.63;;;27.00;99.90;;;;;;5077275;28;21000;-76
2022/05/02 14:32:07;;;;;;;5.97;4.90;;;26.90;99.90;;;;;;5075241;28;20796;-77
2022/05/02 14:34:41;;;;;;;9.30;4.90;;;26.80;99.90;;;;;;5076811;28;20422;-78
2022/05/02 14:37:08;;;;;;;16.23;5.20;;;26.60;99.90;;;;;;5076782;28;20446;-77
2022/05/02 14:39:38;;;;;;;7.50;5.20;;;26.50;99.90;;;;;;5076613;28;20417;-77
2022/05/02 14:42:04;;;;;;;7.33;4.90;;;26.40;99.90;;;;;;5073705;28;20416;-76
2022/05/02 14:44:35;;;;;;;9.90;4.63;;;26.70;99.90;;;;;;5074545;28;20395;-75
2022/05/02 14:47:02;;;;;;;8.83;4.90;;;27.00;99.90;;;;;;5063762;28;20519;-75
2022/05/02 14:49:28;;;;;;;7.40;4.90;;;27.20;99.90;;;;;;5074684;28;20417;-74
2022/05/02 14:51:58;;;;;;;5.20;4.70;;;27.50;99.90;;;;;;5076218;28;20420;-82
2022/05/02 14:54:27;;;;;;;7.77;4.70;;;27.70;99.90;;;;;;5075971;28;20180;-78
2022/05/02 14:57:02;;;;;;;5.63;4.80;;;28.10;99.90;;;;;;5076031;28;20430;-78
2022/05/02 14:59:54;;;;;;;6.13;4.70;;;28.50;99.90;;;;;;5076455;28;20503;-78
2022/05/02 15:02:23;;;;;;;9.40;4.80;;;28.80;99.90;;;;;;5074705;28;20426;-78
2022/05/02 15:05:03;;;;;;;6.90;5.00;;;29.10;99.90;;;;;;5074577;28;20852;-78
2022/05/02 15:07:59;;;;;;;6.47;5.30;;;29.10;99.90;;;;;;5071615;28;20417;-78
2022/05/02 15:10:54;;;;;;;7.30;4.73;;;28.80;99.90;;;;;;5071827;28;20478;-78
2022/05/02 15:14:09;;;;;;;6.20;4.80;;;28.70;99.90;;;;;;5081384;28;20423;-78
2022/05/02 15:16:39;;;;;;;8.00;4.80;;;28.20;99.90;;;;;;5075918;28;20534;-81
2022/05/02 15:19:43;;;;;;;10.40;5.00;;;28.60;99.90;;;;;;5075561;28;20423;-81
2022/05/02 15:23:03;;;;;;;9.07;4.53;;;28.70;99.90;;;;;;5015476;28;20971;-82
2022/05/02 15:25:57;;;;;;;6.20;4.90;;;28.60;99.90;;;;;;5030031;28;20450;-81